createdAt,value
2023-05-16T00:01:16.739Z,12.80
2023-05-16T00:03:19.380Z,12.80
2023-05-16T00:05:21.727Z,12.80
2023-05-16T00:07:23.584Z,12.90
2023-05-16T00:09:25.469Z,12.80
2023-05-16T00:11:27.653Z,12.80
2023-05-16T00:13:29.903Z,12.80
2023-05-16T00:15:31.810Z,12.60
2023-05-16T00:17:33.691Z,12.50
2023-05-16T00:19:35.674Z,12.50
2023-05-16T00:21:37.550Z,12.40
2023-05-16T00:23:39.655Z,12.50
2023-05-16T00:25:41.458Z,12.50
2023-05-16T00:27:43.309Z,12.40
2023-05-16T00:29:45.204Z,12.50
2023-05-16T00:31:47.157Z,12.40
2023-05-16T00:33:48.939Z,12.40
2023-05-16T00:35:50.842Z,12.30
2023-05-16T00:37:52.879Z,12.30
2023-05-16T00:39:54.772Z,12.20
2023-05-16T00:41:57.679Z,12.10
2023-05-16T00:43:59.651Z,12.10
2023-05-16T00:46:02.060Z,12.20
2023-05-16T00:48:04.328Z,12.20
2023-05-16T00:50:07.388Z,12.20
2023-05-16T00:52:09.450Z,12.20
2023-05-16T00:54:11.809Z,12.30
2023-05-16T00:56:13.718Z,12.20
2023-05-16T00:58:16.405Z,12.10
2023-05-16T01:00:19.995Z,12.10
2023-05-16T01:02:22.383Z,12.10
2023-05-16T01:04:25.819Z,12.00
2023-05-16T01:06:27.942Z,12.00
2023-05-16T01:08:29.833Z,11.90
2023-05-16T01:10:47.271Z,11.80
2023-05-16T01:13:14.854Z,11.90
2023-05-16T01:15:27.575Z,11.80
2023-05-16T01:18:03.637Z,11.60
2023-05-16T01:20:31.066Z,11.60
2023-05-16T01:22:54.206Z,11.50
2023-05-16T01:25:01.528Z,11.40
2023-05-16T01:27:06.180Z,11.50
2023-05-16T01:29:08.732Z,11.50
2023-05-16T01:31:10.672Z,11.50
2023-05-16T01:33:12.748Z,11.40
2023-05-16T01:35:15.507Z,11.40
2023-05-16T01:37:29.938Z,11.30
2023-05-16T01:40:01.172Z,11.10
2023-05-16T01:42:09.974Z,11.20
2023-05-16T01:44:28.455Z,11.20
2023-05-16T01:46:35.996Z,11.30
2023-05-16T01:49:03.884Z,11.40
2023-05-16T01:51:06.925Z,11.50
2023-05-16T01:53:15.075Z,11.40
2023-05-16T01:55:36.553Z,11.40
2023-05-16T01:57:40.327Z,11.40
2023-05-16T01:59:44.233Z,11.40
2023-05-16T02:01:46.302Z,11.30
2023-05-16T02:03:48.072Z,11.30
2023-05-16T02:05:50.005Z,11.20
2023-05-16T02:07:52.269Z,11.20
2023-05-16T02:09:54.146Z,11.20
2023-05-16T02:11:56.143Z,11.10
2023-05-16T02:13:58.182Z,11.10
2023-05-16T02:15:59.935Z,11.10
2023-05-16T02:18:01.868Z,11.10
2023-05-16T02:20:07.163Z,11.10
2023-05-16T02:22:09.090Z,11.10
2023-05-16T02:24:11.150Z,11.00
2023-05-16T02:26:13.051Z,11.10
2023-05-16T02:28:14.926Z,11.10
2023-05-16T02:30:16.895Z,11.10
2023-05-16T02:32:18.892Z,11.10
2023-05-16T02:34:20.685Z,11.10
2023-05-16T02:36:22.830Z,11.10
2023-05-16T02:38:24.673Z,11.20
2023-05-16T02:40:26.591Z,11.30
2023-05-16T02:42:29.444Z,11.30
2023-05-16T02:44:31.291Z,11.30
2023-05-16T02:46:34.975Z,11.30
2023-05-16T02:48:36.914Z,11.40
2023-05-16T02:50:40.355Z,11.70
2023-05-16T02:52:42.214Z,11.90
2023-05-16T02:54:45.432Z,12.30
2023-05-16T02:56:50.531Z,12.40
2023-05-16T02:58:54.557Z,12.30
2023-05-16T03:00:56.555Z,11.80
2023-05-16T03:02:58.548Z,11.60
2023-05-16T03:05:00.617Z,11.40
2023-05-16T03:07:02.554Z,11.40
2023-05-16T03:09:04.458Z,11.40
2023-05-16T03:11:06.367Z,11.40
2023-05-16T03:13:08.294Z,11.40
2023-05-16T03:15:10.528Z,11.50
2023-05-16T03:17:12.410Z,11.50
2023-05-16T03:19:14.394Z,11.60
2023-05-16T03:21:16.331Z,11.80
2023-05-16T03:23:18.417Z,11.90
2023-05-16T03:25:20.211Z,12.00
2023-05-16T03:27:23.375Z,12.20
2023-05-16T03:29:26.208Z,12.40
2023-05-16T03:31:28.143Z,12.50
2023-05-16T03:33:30.063Z,12.60
2023-05-16T03:35:32.997Z,12.70
2023-05-16T03:37:34.942Z,12.90
2023-05-16T03:39:36.975Z,13.00
2023-05-16T03:41:38.693Z,12.90
2023-05-16T03:43:40.862Z,13.00
2023-05-16T03:45:43.447Z,13.10
2023-05-16T03:47:45.511Z,13.30
2023-05-16T03:49:47.394Z,13.30
2023-05-16T03:51:49.341Z,13.40
2023-05-16T03:53:51.218Z,13.50
2023-05-16T03:55:53.127Z,13.60
2023-05-16T03:57:54.970Z,13.60
2023-05-16T03:59:56.791Z,13.70
2023-05-16T04:01:58.640Z,13.90
2023-05-16T04:04:00.569Z,14.00
2023-05-16T04:06:02.450Z,14.00
2023-05-16T04:08:04.456Z,14.10
2023-05-16T04:10:07.058Z,14.00
2023-05-16T04:12:09.012Z,14.00
2023-05-16T04:14:10.920Z,14.10
2023-05-16T04:16:13.124Z,14.20
2023-05-16T04:18:15.001Z,14.30
2023-05-16T04:20:17.062Z,14.40
2023-05-16T04:22:18.801Z,14.60
2023-05-16T04:24:20.798Z,14.70
2023-05-16T04:26:23.370Z,14.70
2023-05-16T04:28:25.532Z,14.80
2023-05-16T04:30:27.429Z,14.90
2023-05-16T04:32:29.449Z,14.90
2023-05-16T04:34:31.273Z,14.90
2023-05-16T04:36:35.501Z,15.20
2023-05-16T04:38:37.965Z,15.30
2023-05-16T04:40:41.791Z,15.10
2023-05-16T04:42:43.643Z,15.10
2023-05-16T04:44:47.998Z,15.20
2023-05-16T04:46:50.118Z,15.20
2023-05-16T04:48:52.339Z,15.40
2023-05-16T04:50:54.139Z,15.40
2023-05-16T04:52:56.624Z,15.30
2023-05-16T04:55:00.464Z,15.60
2023-05-16T04:57:02.440Z,15.60
2023-05-16T04:59:04.566Z,15.70
2023-05-16T05:01:06.768Z,15.60
2023-05-16T05:03:09.113Z,15.70
2023-05-16T05:05:11.464Z,15.60
2023-05-16T05:07:14.464Z,15.60
2023-05-16T05:09:16.332Z,15.80
2023-05-16T05:11:18.226Z,15.90
2023-05-16T05:13:20.125Z,16.00
2023-05-16T05:15:24.143Z,16.10
2023-05-16T05:17:26.164Z,16.30
2023-05-16T05:19:27.999Z,16.30
2023-05-16T05:21:30.867Z,16.30
2023-05-16T05:23:34.917Z,16.50
2023-05-16T05:25:37.844Z,16.50
2023-05-16T05:27:39.908Z,16.60
2023-05-16T05:29:41.922Z,16.60
2023-05-16T05:31:43.654Z,16.60
2023-05-16T05:33:46.021Z,16.50
2023-05-16T05:35:47.928Z,16.50
2023-05-16T05:37:49.790Z,16.30
2023-05-16T05:39:51.670Z,16.30
2023-05-16T05:41:53.573Z,16.10
2023-05-16T05:43:55.525Z,16.10
2023-05-16T05:45:57.273Z,16.20
2023-05-16T05:48:12.837Z,16.10
2023-05-16T05:50:17.501Z,16.10
2023-05-16T05:52:19.464Z,16.30
2023-05-16T05:54:21.412Z,16.30
2023-05-16T05:56:24.809Z,16.60
2023-05-16T05:58:26.831Z,16.70
2023-05-16T06:00:29.450Z,16.80
2023-05-16T06:02:31.563Z,16.80
2023-05-16T06:04:33.551Z,16.70
2023-05-16T06:06:35.607Z,16.90
2023-05-16T06:08:37.339Z,16.60
2023-05-16T06:10:39.320Z,16.70
2023-05-16T06:12:41.173Z,16.70
2023-05-16T06:14:43.007Z,16.70
2023-05-16T06:16:44.887Z,16.70
2023-05-16T06:18:46.885Z,16.80
2023-05-16T06:20:48.932Z,16.70
2023-05-16T06:22:50.702Z,16.80
2023-05-16T06:24:52.614Z,16.80
2023-05-16T06:26:54.480Z,16.90
2023-05-16T06:28:56.343Z,16.80
2023-05-16T06:30:58.274Z,16.80
2023-05-16T06:33:00.316Z,16.70
2023-05-16T06:35:02.213Z,16.60
2023-05-16T06:37:04.127Z,16.50
2023-05-16T06:39:06.059Z,16.50
2023-05-16T06:41:07.999Z,16.40
2023-05-16T06:43:09.934Z,16.30
2023-05-16T06:45:12.076Z,16.40
2023-05-16T06:47:13.963Z,16.50
2023-05-16T06:49:16.098Z,16.50
2023-05-16T06:51:17.959Z,16.60
2023-05-16T06:53:20.103Z,16.60
2023-05-16T06:55:22.089Z,16.70
2023-05-16T06:57:23.992Z,16.90
2023-05-16T06:59:27.980Z,16.90
2023-05-16T07:01:30.237Z,17.00
2023-05-16T07:03:32.641Z,17.20
2023-05-16T07:05:34.612Z,17.50
2023-05-16T07:07:36.740Z,17.60
2023-05-16T07:09:38.741Z,17.80
2023-05-16T07:11:40.556Z,17.90
2023-05-16T07:13:42.464Z,18.10
2023-05-16T07:15:44.434Z,18.10
2023-05-16T07:17:46.334Z,18.20
2023-05-16T07:19:48.324Z,18.30
2023-05-16T07:21:50.211Z,18.30
2023-05-16T07:23:52.237Z,18.40
2023-05-16T07:25:54.057Z,18.60
2023-05-16T07:27:56.363Z,18.70
2023-05-16T07:29:58.361Z,18.90
2023-05-16T07:32:00.191Z,18.90
2023-05-16T07:34:02.173Z,18.80
2023-05-16T07:36:15.473Z,19.20
2023-05-16T07:38:19.096Z,19.40
2023-05-16T07:40:28.398Z,19.20
2023-05-16T07:42:31.185Z,18.90
2023-05-16T07:44:33.115Z,18.90
2023-05-16T07:46:35.219Z,18.80
2023-05-16T07:48:37.400Z,18.80
2023-05-16T07:50:39.335Z,18.60
2023-05-16T07:52:41.297Z,18.70
2023-05-16T07:54:43.052Z,18.60
2023-05-16T07:56:44.996Z,18.50
2023-05-16T07:58:48.884Z,18.70
2023-05-16T08:00:51.007Z,18.80
2023-05-16T08:02:53.119Z,19.00
2023-05-16T08:04:55.289Z,19.00
2023-05-16T08:06:57.282Z,19.00
2023-05-16T08:08:59.440Z,19.00
2023-05-16T08:11:01.401Z,19.00
2023-05-16T08:13:04.129Z,19.10
2023-05-16T08:15:06.891Z,19.20
2023-05-16T08:17:08.825Z,19.20
2023-05-16T08:19:10.888Z,19.30
2023-05-16T08:21:14.253Z,19.20
2023-05-16T08:23:16.565Z,19.50
2023-05-16T08:25:20.942Z,19.90
2023-05-16T08:27:22.779Z,20.20
2023-05-16T08:29:24.782Z,20.10
2023-05-16T08:31:26.699Z,20.00
2023-05-16T08:33:28.662Z,19.80
2023-05-16T08:35:31.120Z,19.80
2023-05-16T08:37:33.809Z,19.80
2023-05-16T08:39:35.760Z,20.00
2023-05-16T08:41:38.254Z,20.10
2023-05-16T08:43:40.123Z,20.20
2023-05-16T08:45:42.988Z,20.00
2023-05-16T08:47:47.319Z,20.20
2023-05-16T08:49:51.309Z,20.40
2023-05-16T08:51:58.292Z,20.50
2023-05-16T08:54:16.018Z,20.50
2023-05-16T08:56:18.739Z,20.40
2023-05-16T08:58:21.019Z,20.20
2023-05-16T09:00:23.675Z,19.90
2023-05-16T09:02:28.174Z,19.80
2023-05-16T09:04:30.874Z,19.70
2023-05-16T09:06:32.920Z,19.70
2023-05-16T09:08:34.771Z,19.60
2023-05-16T09:10:36.717Z,19.60
2023-05-16T09:12:39.770Z,19.60
2023-05-16T09:14:42.574Z,19.50
2023-05-16T09:16:46.547Z,19.60
2023-05-16T09:18:57.160Z,19.70
2023-05-16T09:21:00.423Z,19.80
2023-05-16T09:23:03.567Z,19.80
2023-05-16T09:25:06.989Z,19.80
2023-05-16T09:27:12.410Z,19.90
2023-05-16T09:29:17.061Z,20.00
2023-05-16T09:31:23.310Z,19.90
2023-05-16T09:33:27.994Z,19.90
2023-05-16T09:35:42.952Z,19.80
2023-05-16T09:37:47.761Z,19.80
2023-05-16T09:39:51.820Z,19.50
2023-05-16T09:41:53.778Z,19.50
2023-05-16T09:43:55.575Z,19.50
2023-05-16T09:46:01.408Z,19.40
2023-05-16T09:48:09.218Z,19.40
2023-05-16T09:50:11.612Z,19.50
2023-05-16T09:52:16.864Z,19.50
2023-05-16T09:54:31.870Z,19.70
2023-05-16T09:56:34.970Z,19.70
2023-05-16T09:58:39.572Z,19.80
2023-05-16T10:00:41.762Z,19.90
2023-05-16T10:02:44.333Z,19.80
2023-05-16T10:04:46.616Z,20.00
2023-05-16T10:06:51.823Z,20.10
2023-05-16T10:08:53.853Z,20.00
2023-05-16T10:10:56.765Z,20.00
2023-05-16T10:13:02.874Z,20.00
2023-05-16T10:15:06.060Z,19.90
2023-05-16T10:17:12.329Z,20.00
2023-05-16T10:19:16.714Z,20.10
2023-05-16T10:21:22.217Z,20.00
2023-05-16T10:23:26.053Z,20.00
2023-05-16T10:25:41.159Z,20.00
2023-05-16T10:27:43.953Z,20.00
2023-05-16T10:29:54.144Z,20.10
2023-05-16T10:31:56.937Z,20.00
2023-05-16T10:33:59.218Z,20.10
2023-05-16T10:36:02.158Z,20.20
2023-05-16T10:38:07.475Z,20.30
2023-05-16T10:40:11.129Z,20.30
2023-05-16T10:42:18.270Z,20.20
2023-05-16T10:44:20.883Z,20.40
2023-05-16T10:46:24.072Z,20.60
2023-05-16T10:48:33.749Z,20.50
2023-05-16T10:50:39.373Z,20.60
2023-05-16T10:52:41.238Z,20.50
2023-05-16T10:54:49.818Z,20.30
2023-05-16T10:56:57.249Z,20.30
2023-05-16T10:58:59.161Z,20.20
2023-05-16T11:01:33.487Z,20.20
2023-05-16T11:03:35.751Z,20.10
2023-05-16T11:05:37.959Z,20.20
2023-05-16T11:07:39.861Z,20.20
2023-05-16T11:09:45.555Z,20.20
2023-05-16T11:11:53.585Z,20.20
2023-05-16T11:13:56.767Z,20.30
2023-05-16T11:16:27.342Z,20.30
2023-05-16T11:18:33.321Z,20.40
2023-05-16T11:20:37.413Z,20.50
2023-05-16T11:22:41.351Z,20.60
2023-05-16T11:25:10.693Z,20.70
2023-05-16T11:27:19.652Z,20.60
2023-05-16T11:29:22.345Z,20.60
2023-05-16T11:31:24.293Z,20.70
2023-05-16T11:33:27.793Z,20.60
2023-05-16T11:35:30.883Z,20.40
2023-05-16T11:37:33.020Z,20.40
2023-05-16T11:39:34.826Z,20.30
2023-05-16T11:41:36.994Z,20.20
2023-05-16T11:43:44.006Z,20.30
2023-05-16T11:45:46.987Z,20.30
2023-05-16T11:47:49.855Z,20.40
2023-05-16T11:49:58.223Z,20.50
2023-05-16T11:52:00.178Z,20.60
2023-05-16T11:54:02.679Z,20.80
2023-05-16T11:56:04.589Z,21.00
2023-05-16T11:58:06.922Z,21.20
2023-05-16T12:00:17.742Z,21.50
2023-05-16T12:02:19.664Z,22.10
2023-05-16T12:04:22.373Z,22.50
2023-05-16T12:06:24.425Z,22.90
2023-05-16T12:08:26.550Z,23.30
2023-05-16T12:10:31.238Z,23.60
2023-05-16T12:12:33.269Z,23.60
2023-05-16T12:14:35.559Z,23.60
2023-05-16T12:16:39.190Z,23.60
2023-05-16T12:18:43.515Z,23.50
2023-05-16T12:20:45.932Z,23.60
2023-05-16T12:22:47.790Z,23.60
2023-05-16T12:24:49.730Z,23.60
2023-05-16T12:26:54.114Z,23.80
2023-05-16T12:29:00.680Z,23.80
2023-05-16T12:31:04.562Z,24.00
2023-05-16T12:33:14.194Z,24.10
2023-05-16T12:35:18.958Z,23.90
2023-05-16T12:37:23.064Z,24.10
2023-05-16T12:39:25.324Z,24.20
2023-05-16T12:41:27.491Z,24.30
2023-05-16T12:43:29.985Z,23.80
2023-05-16T12:45:35.320Z,23.60
2023-05-16T12:47:38.871Z,23.20
2023-05-16T12:49:48.231Z,22.90
2023-05-16T12:51:52.342Z,22.30
2023-05-16T12:54:08.853Z,22.00
2023-05-16T12:56:12.367Z,21.70
2023-05-16T12:58:14.419Z,21.40
2023-05-16T13:00:20.336Z,21.20
2023-05-16T13:02:22.728Z,21.10
2023-05-16T13:04:24.711Z,21.10
2023-05-16T13:06:27.629Z,21.10
2023-05-16T13:08:30.305Z,21.10
2023-05-16T13:10:32.214Z,21.20
2023-05-16T13:12:33.999Z,21.30
2023-05-16T13:14:38.107Z,21.40
2023-05-16T13:16:40.112Z,21.50
2023-05-16T13:18:42.337Z,21.60
2023-05-16T13:20:44.568Z,21.50
2023-05-16T13:22:46.685Z,21.60
2023-05-16T13:24:48.491Z,21.80
2023-05-16T13:26:51.516Z,21.90
2023-05-16T13:28:55.091Z,22.10
2023-05-16T13:30:59.628Z,22.20
2023-05-16T13:33:02.874Z,22.20
2023-05-16T13:35:06.116Z,22.20
2023-05-16T13:37:08.121Z,22.10
2023-05-16T13:39:10.080Z,22.10
2023-05-16T13:41:12.027Z,22.00
2023-05-16T13:43:15.723Z,22.00
2023-05-16T13:45:17.739Z,22.00
2023-05-16T13:47:21.027Z,22.10
2023-05-16T13:49:23.709Z,21.90
2023-05-16T13:51:25.838Z,21.90
2023-05-16T13:53:28.196Z,22.00
2023-05-16T13:55:30.298Z,22.00
2023-05-16T13:57:33.284Z,21.90
2023-05-16T14:00:02.176Z,21.80
2023-05-16T14:01:57.438Z,21.90
2023-05-16T14:03:59.540Z,21.90
2023-05-16T14:06:01.626Z,21.90
2023-05-16T14:08:03.454Z,21.80
2023-05-16T14:10:06.978Z,21.70
2023-05-16T14:12:09.518Z,21.70
2023-05-16T14:14:11.383Z,21.50
2023-05-16T14:16:13.423Z,21.30
2023-05-16T14:18:15.419Z,21.10
2023-05-16T14:20:17.341Z,20.90
2023-05-16T14:22:19.371Z,20.90
2023-05-16T14:24:21.536Z,20.80
2023-05-16T14:26:25.490Z,20.70
2023-05-16T14:28:27.735Z,20.70
2023-05-16T14:30:29.930Z,20.70
2023-05-16T14:32:32.332Z,20.70
2023-05-16T14:34:34.434Z,20.70
2023-05-16T14:36:36.369Z,20.70
2023-05-16T14:38:39.455Z,20.70
2023-05-16T14:40:41.401Z,20.50
2023-05-16T14:42:43.222Z,20.50
2023-05-16T14:44:45.399Z,20.40
2023-05-16T14:46:47.968Z,20.40
2023-05-16T14:48:50.061Z,20.30
2023-05-16T14:50:53.453Z,20.30
2023-05-16T14:52:55.881Z,20.20
2023-05-16T14:54:58.345Z,20.20
2023-05-16T14:57:01.220Z,20.30
2023-05-16T14:59:03.271Z,20.30
2023-05-16T15:01:05.868Z,20.40
2023-05-16T15:03:07.987Z,20.50
2023-05-16T15:05:10.182Z,20.60
2023-05-16T15:07:12.361Z,20.60
2023-05-16T15:09:14.438Z,20.60
2023-05-16T15:11:16.497Z,20.60
2023-05-16T15:13:18.424Z,20.50
2023-05-16T15:15:20.396Z,20.40
2023-05-16T15:17:22.499Z,20.30
2023-05-16T15:19:24.498Z,20.20
2023-05-16T15:21:27.220Z,20.20
2023-05-16T15:23:30.127Z,20.10
2023-05-16T15:25:32.620Z,20.10
2023-05-16T15:27:34.796Z,20.10
2023-05-16T15:29:36.776Z,20.00
2023-05-16T15:31:38.643Z,20.00
2023-05-16T15:33:40.756Z,20.00
2023-05-16T15:35:43.646Z,20.00
2023-05-16T15:37:45.728Z,19.90
2023-05-16T15:39:48.168Z,19.90
2023-05-16T15:42:09.285Z,19.90
2023-05-16T15:44:12.303Z,19.90
2023-05-16T15:46:14.286Z,19.90
2023-05-16T15:48:16.464Z,19.90
2023-05-16T15:50:18.618Z,19.90
2023-05-16T15:52:22.587Z,19.90
2023-05-16T15:54:25.003Z,19.90
2023-05-16T15:56:26.825Z,19.80
2023-05-16T15:58:29.680Z,19.90
2023-05-16T16:00:31.994Z,19.90
2023-05-16T16:02:34.750Z,19.90
2023-05-16T16:04:37.208Z,19.80
2023-05-16T16:06:39.373Z,19.80
2023-05-16T16:08:42.282Z,19.80
2023-05-16T16:10:44.215Z,19.80
2023-05-16T16:12:59.816Z,19.80
2023-05-16T16:15:02.548Z,19.70
2023-05-16T16:17:07.544Z,19.60
2023-05-16T16:19:09.596Z,19.60
2023-05-16T16:21:12.569Z,19.50
2023-05-16T16:23:14.768Z,19.60
2023-05-16T16:25:16.823Z,19.50
2023-05-16T16:27:18.607Z,19.50
2023-05-16T16:29:20.587Z,19.50
2023-05-16T16:31:22.662Z,19.50
2023-05-16T16:33:24.655Z,19.40
2023-05-16T16:35:26.808Z,19.40
2023-05-16T16:37:28.924Z,19.40
2023-05-16T16:39:33.059Z,19.40
2023-05-16T16:41:35.438Z,19.40
2023-05-16T16:43:39.910Z,19.30
2023-05-16T16:45:43.174Z,19.30
2023-05-16T16:47:45.117Z,19.30
2023-05-16T16:49:47.370Z,19.30
2023-05-16T16:51:50.062Z,19.10
2023-05-16T16:53:52.028Z,19.00
2023-05-16T16:55:53.875Z,19.00
2023-05-16T16:57:56.268Z,18.90
2023-05-16T16:59:59.649Z,18.90
2023-05-16T17:02:01.695Z,18.90
2023-05-16T17:04:03.731Z,18.90
2023-05-16T17:06:05.855Z,18.80
2023-05-16T17:08:08.360Z,18.80
2023-05-16T17:10:10.602Z,18.70
2023-05-16T17:12:19.138Z,18.70
2023-05-16T17:14:21.124Z,18.70
2023-05-16T17:16:22.927Z,18.70
2023-05-16T17:18:25.070Z,18.70
2023-05-16T17:20:27.344Z,18.80
2023-05-16T17:22:29.285Z,18.70
2023-05-16T17:24:31.429Z,18.60
2023-05-16T17:26:33.518Z,18.60
2023-05-16T17:28:35.274Z,18.60
2023-05-16T17:30:37.639Z,18.60
2023-05-16T17:32:40.230Z,18.60
2023-05-16T17:34:42.489Z,18.60
2023-05-16T17:36:45.447Z,18.60
2023-05-16T17:38:48.002Z,18.60
2023-05-16T17:40:49.922Z,18.60
2023-05-16T17:42:51.923Z,18.60
2023-05-16T17:44:53.851Z,18.50
2023-05-16T17:46:55.933Z,18.60
2023-05-16T17:48:58.279Z,18.60
2023-05-16T17:51:02.249Z,18.50
2023-05-16T17:53:04.844Z,18.40
2023-05-16T17:55:08.986Z,18.40
2023-05-16T17:57:11.183Z,18.30
2023-05-16T17:59:13.816Z,18.30
2023-05-16T18:01:16.069Z,18.30
2023-05-16T18:03:18.311Z,18.10
2023-05-16T18:05:20.381Z,18.10
2023-05-16T18:07:22.478Z,18.00
2023-05-16T18:09:25.604Z,17.90
2023-05-16T18:11:27.674Z,17.90
2023-05-16T18:13:29.696Z,18.00
2023-05-16T18:15:32.073Z,17.90
2023-05-16T18:17:34.627Z,18.00
2023-05-16T18:19:36.813Z,17.90
2023-05-16T18:21:39.637Z,17.90
2023-05-16T18:23:41.869Z,17.90
2023-05-16T18:25:43.857Z,17.90
2023-05-16T18:27:46.158Z,17.90
2023-05-16T18:29:48.085Z,17.90
2023-05-16T18:31:49.964Z,17.90
2023-05-16T18:33:52.499Z,17.80
2023-05-16T18:35:54.379Z,17.80
2023-05-16T18:37:56.381Z,17.80
2023-05-16T18:39:58.358Z,17.80
2023-05-16T18:42:00.614Z,17.80
2023-05-16T18:44:02.777Z,17.80
2023-05-16T18:46:04.801Z,17.80
2023-05-16T18:48:06.898Z,17.80
2023-05-16T18:50:11.214Z,17.70
2023-05-16T18:52:13.413Z,17.70
2023-05-16T18:54:15.414Z,17.70
2023-05-16T18:56:17.536Z,17.70
2023-05-16T18:58:20.761Z,17.60
2023-05-16T19:00:23.048Z,17.60
2023-05-16T19:02:37.911Z,17.60
2023-05-16T19:04:43.940Z,17.50
2023-05-16T19:06:46.135Z,17.50
2023-05-16T19:08:48.601Z,17.50
2023-05-16T19:10:51.221Z,17.50
2023-05-16T19:12:53.113Z,17.40
2023-05-16T19:14:55.015Z,17.50
2023-05-16T19:16:56.953Z,17.50
2023-05-16T19:18:58.942Z,17.50
2023-05-16T19:21:00.884Z,17.50
2023-05-16T19:23:03.607Z,17.50
2023-05-16T19:25:06.669Z,17.40
2023-05-16T19:27:08.536Z,17.40
2023-05-16T19:29:10.864Z,17.40
2023-05-16T19:31:13.015Z,17.50
2023-05-16T19:33:15.090Z,17.40
2023-05-16T19:35:18.577Z,17.40
2023-05-16T19:37:20.570Z,17.40
2023-05-16T19:39:22.572Z,17.40
2023-05-16T19:41:24.788Z,17.40
2023-05-16T19:43:26.822Z,17.40
2023-05-16T19:45:28.950Z,17.30
2023-05-16T19:47:31.604Z,17.30
2023-05-16T19:49:33.596Z,17.30
2023-05-16T19:51:41.948Z,17.30
2023-05-16T19:53:46.093Z,17.40
2023-05-16T19:55:49.480Z,17.40
2023-05-16T19:57:52.383Z,17.40
2023-05-16T19:59:54.627Z,17.40
2023-05-16T20:01:56.582Z,17.40
2023-05-16T20:03:59.080Z,17.20
2023-05-16T20:06:01.322Z,17.30
2023-05-16T20:08:03.222Z,17.30
2023-05-16T20:10:05.611Z,17.30
2023-05-16T20:12:08.401Z,17.30
2023-05-16T20:14:10.325Z,17.30
2023-05-16T20:16:12.892Z,17.20
2023-05-16T20:18:15.725Z,17.20
2023-05-16T20:20:17.878Z,17.20
2023-05-16T20:22:20.277Z,17.10
2023-05-16T20:24:22.067Z,17.20
2023-05-16T20:26:23.992Z,17.20
2023-05-16T20:28:25.754Z,17.20
2023-05-16T20:30:28.330Z,17.10
2023-05-16T20:32:30.573Z,17.10
2023-05-16T20:34:32.877Z,17.00
2023-05-16T20:36:35.039Z,17.00
2023-05-16T20:38:41.848Z,17.00
2023-05-16T20:40:43.756Z,17.10
2023-05-16T20:42:45.881Z,17.10
2023-05-16T20:44:48.045Z,17.10
2023-05-16T20:46:50.060Z,17.10
2023-05-16T20:48:52.036Z,17.00
2023-05-16T20:50:54.671Z,17.00
2023-05-16T20:52:56.640Z,16.90
2023-05-16T20:55:01.249Z,16.90
2023-05-16T20:57:03.491Z,16.90
2023-05-16T20:59:05.316Z,16.90
2023-05-16T21:01:07.301Z,16.80
2023-05-16T21:03:09.152Z,16.90
2023-05-16T21:05:24.074Z,16.80
2023-05-16T21:07:27.428Z,16.80
2023-05-16T21:09:29.398Z,16.80
2023-05-16T21:11:33.003Z,16.80
2023-05-16T21:13:34.946Z,16.80
2023-05-16T21:15:38.314Z,16.80
2023-05-16T21:17:41.550Z,16.80
2023-05-16T21:19:43.870Z,16.70
2023-05-16T21:21:45.828Z,16.60
2023-05-16T21:23:47.868Z,16.50
2023-05-16T21:25:49.656Z,16.50
2023-05-16T21:27:51.677Z,16.50
2023-05-16T21:29:53.442Z,16.60
2023-05-16T21:31:55.545Z,16.60
2023-05-16T21:33:57.534Z,16.60
2023-05-16T21:36:00.532Z,16.50
2023-05-16T21:38:02.683Z,16.50
2023-05-16T21:40:04.700Z,16.50
2023-05-16T21:42:06.880Z,16.50
2023-05-16T21:44:08.849Z,16.50
2023-05-16T21:46:11.000Z,16.50
2023-05-16T21:48:12.960Z,16.50
2023-05-16T21:50:15.069Z,16.50
2023-05-16T21:52:17.053Z,16.50
2023-05-16T21:54:19.009Z,16.50
2023-05-16T21:56:20.868Z,16.50
2023-05-16T21:58:23.422Z,16.40
2023-05-16T22:00:26.601Z,16.30
2023-05-16T22:02:28.585Z,16.20
2023-05-16T22:04:30.495Z,16.20
2023-05-16T22:06:32.555Z,16.20
2023-05-16T22:08:34.443Z,16.20
2023-05-16T22:10:36.348Z,16.30
2023-05-16T22:12:39.029Z,16.20
2023-05-16T22:14:40.974Z,16.20
2023-05-16T22:16:42.903Z,16.30
2023-05-16T22:18:45.549Z,16.30
2023-05-16T22:20:47.623Z,16.20
2023-05-16T22:22:50.857Z,16.20
2023-05-16T22:24:52.805Z,16.10
2023-05-16T22:26:54.713Z,16.10
2023-05-16T22:28:56.589Z,16.00
2023-05-16T22:30:58.549Z,16.00
2023-05-16T22:33:00.562Z,16.00
2023-05-16T22:35:02.621Z,16.00
2023-05-16T22:37:04.518Z,16.00
2023-05-16T22:39:07.243Z,16.00
2023-05-16T22:41:09.134Z,16.00
2023-05-16T22:43:11.052Z,16.00
2023-05-16T22:45:13.075Z,16.00
2023-05-16T22:47:15.006Z,16.00
2023-05-16T22:49:16.934Z,15.90
2023-05-16T22:51:18.895Z,15.90
2023-05-16T22:53:20.776Z,15.90
2023-05-16T22:55:22.730Z,15.90
2023-05-16T22:57:24.625Z,15.80
2023-05-16T22:59:26.711Z,15.80
2023-05-16T23:01:28.557Z,15.90
2023-05-16T23:03:30.568Z,15.90
2023-05-16T23:05:32.528Z,15.90
2023-05-16T23:07:34.417Z,15.90
2023-05-16T23:09:36.882Z,15.90
2023-05-16T23:11:38.774Z,15.90
2023-05-16T23:13:40.728Z,15.90
2023-05-16T23:15:42.633Z,15.80
2023-05-16T23:17:44.868Z,15.80
2023-05-16T23:19:46.934Z,15.80
2023-05-16T23:21:48.713Z,15.80
2023-05-16T23:23:50.584Z,15.80
2023-05-16T23:25:52.478Z,15.70
2023-05-16T23:27:58.670Z,15.80
2023-05-16T23:30:00.572Z,15.80
2023-05-16T23:32:02.504Z,15.80
2023-05-16T23:34:04.579Z,15.80
2023-05-16T23:36:07.085Z,15.80
2023-05-16T23:38:09.046Z,15.80
2023-05-16T23:40:13.836Z,15.80
2023-05-16T23:42:15.925Z,15.80
2023-05-16T23:44:17.704Z,15.80
2023-05-16T23:46:19.652Z,15.90
2023-05-16T23:48:21.630Z,15.90
2023-05-16T23:50:23.763Z,15.90
2023-05-16T23:52:25.774Z,15.90
2023-05-16T23:54:27.735Z,15.90
2023-05-16T23:56:29.618Z,15.90
2023-05-16T23:58:31.600Z,15.90
